sensor_id;sensor_type;location;lat;lon;timestamp;temperature;humidity
45729;DHT22;31439;53.512;10.206;2023-09-19T00:00:22;17.50;99.90
45729;DHT22;31439;53.512;10.206;2023-09-19T00:02:55;17.50;99.90
45729;DHT22;31439;53.512;10.206;2023-09-19T00:05:25;17.50;99.90
45729;DHT22;31439;53.512;10.206;2023-09-19T00:07:53;17.50;99.90
45729;DHT22;31439;53.512;10.206;2023-09-19T00:10:21;17.50;99.90
45729;DHT22;31439;53.512;10.206;2023-09-19T00:12:47;17.50;99.90
45729;DHT22;31439;53.512;10.206;2023-09-19T00:15:13;17.40;99.90
45729;DHT22;31439;53.512;10.206;2023-09-19T00:17:43;17.50;99.90
45729;DHT22;31439;53.512;10.206;2023-09-19T00:20:09;17.50;99.90
45729;DHT22;31439;53.512;10.206;2023-09-19T00:22:41;17.50;99.90
45729;DHT22;31439;53.512;10.206;2023-09-19T00:25:10;17.50;99.90
45729;DHT22;31439;53.512;10.206;2023-09-19T00:27:39;17.50;99.90
45729;DHT22;31439;53.512;10.206;2023-09-19T00:30:06;17.50;99.90
45729;DHT22;31439;53.512;10.206;2023-09-19T00:32:34;17.40;99.90
45729;DHT22;31439;53.512;10.206;2023-09-19T00:35:00;17.50;99.90
45729;DHT22;31439;53.512;10.206;2023-09-19T00:37:25;17.50;99.90
45729;DHT22;31439;53.512;10.206;2023-09-19T00:39:51;17.50;99.90
45729;DHT22;31439;53.512;10.206;2023-09-19T00:42:20;17.50;99.90
45729;DHT22;31439;53.512;10.206;2023-09-19T00:44:47;17.40;99.90
45729;DHT22;31439;53.512;10.206;2023-09-19T00:47:12;17.40;99.90
45729;DHT22;31439;53.512;10.206;2023-09-19T00:49:43;17.50;99.90
45729;DHT22;31439;53.512;10.206;2023-09-19T00:52:11;17.50;99.90
45729;DHT22;31439;53.512;10.206;2023-09-19T00:54:37;17.40;99.90
45729;DHT22;31439;53.512;10.206;2023-09-19T00:57:03;17.40;99.90
45729;DHT22;31439;53.512;10.206;2023-09-19T00:59:29;17.50;99.90
45729;DHT22;31439;53.512;10.206;2023-09-19T01:01:56;17.40;99.90
45729;DHT22;31439;53.512;10.206;2023-09-19T01:04:22;17.40;99.90
45729;DHT22;31439;53.512;10.206;2023-09-19T01:06:49;17.50;99.90
45729;DHT22;31439;53.512;10.206;2023-09-19T01:09:22;17.40;99.90
45729;DHT22;31439;53.512;10.206;2023-09-19T01:11:50;17.40;99.90
45729;DHT22;31439;53.512;10.206;2023-09-19T01:14:38;17.50;99.90
45729;DHT22;31439;53.512;10.206;2023-09-19T01:17:21;17.40;99.90
45729;DHT22;31439;53.512;10.206;2023-09-19T01:22:46;17.30;99.90
45729;DHT22;31439;53.512;10.206;2023-09-19T01:25:33;17.40;99.90
45729;DHT22;31439;53.512;10.206;2023-09-19T01:30:52;17.30;99.90
45729;DHT22;31439;53.512;10.206;2023-09-19T01:33:23;17.30;99.90
45729;DHT22;31439;53.512;10.206;2023-09-19T01:35:49;17.30;99.90
45729;DHT22;31439;53.512;10.206;2023-09-19T01:38:15;17.40;99.90
45729;DHT22;31439;53.512;10.206;2023-09-19T01:40:43;17.40;99.90
45729;DHT22;31439;53.512;10.206;2023-09-19T01:51:06;17.40;99.90
45729;DHT22;31439;53.512;10.206;2023-09-19T01:53:51;17.40;99.90
45729;DHT22;31439;53.512;10.206;2023-09-19T01:56:24;17.40;99.90
45729;DHT22;31439;53.512;10.206;2023-09-19T01:58:55;17.40;99.90
45729;DHT22;31439;53.512;10.206;2023-09-19T02:01:24;17.50;99.90
45729;DHT22;31439;53.512;10.206;2023-09-19T02:03:50;17.40;99.90
45729;DHT22;31439;53.512;10.206;2023-09-19T02:06:17;17.40;99.90
45729;DHT22;31439;53.512;10.206;2023-09-19T02:08:43;17.40;99.90
45729;DHT22;31439;53.512;10.206;2023-09-19T02:11:13;17.50;99.90
45729;DHT22;31439;53.512;10.206;2023-09-19T02:13:39;17.50;99.90
45729;DHT22;31439;53.512;10.206;2023-09-19T02:16:06;17.50;99.90
45729;DHT22;31439;53.512;10.206;2023-09-19T02:18:32;17.40;99.90
45729;DHT22;31439;53.512;10.206;2023-09-19T02:21:01;17.50;99.90
45729;DHT22;31439;53.512;10.206;2023-09-19T02:23:26;17.40;99.90
45729;DHT22;31439;53.512;10.206;2023-09-19T02:25:56;17.40;99.90
45729;DHT22;31439;53.512;10.206;2023-09-19T02:28:23;17.40;99.90
45729;DHT22;31439;53.512;10.206;2023-09-19T02:30:49;17.40;99.90
45729;DHT22;31439;53.512;10.206;2023-09-19T02:33:16;17.30;99.90
45729;DHT22;31439;53.512;10.206;2023-09-19T02:35:42;17.30;99.90
45729;DHT22;31439;53.512;10.206;2023-09-19T02:38:08;17.30;99.90
45729;DHT22;31439;53.512;10.206;2023-09-19T02:40:37;17.40;99.90
45729;DHT22;31439;53.512;10.206;2023-09-19T02:43:02;17.30;99.90
45729;DHT22;31439;53.512;10.206;2023-09-19T02:45:28;17.30;99.90
45729;DHT22;31439;53.512;10.206;2023-09-19T02:47:55;17.30;99.90
45729;DHT22;31439;53.512;10.206;2023-09-19T02:50:21;17.40;99.90
45729;DHT22;31439;53.512;10.206;2023-09-19T02:52:47;17.40;99.90
45729;DHT22;31439;53.512;10.206;2023-09-19T02:55:18;17.40;99.90
45729;DHT22;31439;53.512;10.206;2023-09-19T03:00:13;17.30;99.90
45729;DHT22;31439;53.512;10.206;2023-09-19T03:02:39;17.30;99.90
45729;DHT22;31439;53.512;10.206;2023-09-19T03:05:07;17.30;99.90
45729;DHT22;31439;53.512;10.206;2023-09-19T03:07:33;17.30;99.90
45729;DHT22;31439;53.512;10.206;2023-09-19T03:09:59;17.30;99.90
45729;DHT22;31439;53.512;10.206;2023-09-19T03:12:26;17.30;99.90
45729;DHT22;31439;53.512;10.206;2023-09-19T03:14:52;17.20;99.90
45729;DHT22;31439;53.512;10.206;2023-09-19T03:17:17;17.00;99.90
45729;DHT22;31439;53.512;10.206;2023-09-19T03:19:45;17.10;99.90
45729;DHT22;31439;53.512;10.206;2023-09-19T03:22:22;17.10;99.90
45729;DHT22;31439;53.512;10.206;2023-09-19T03:24:47;17.10;99.90
45729;DHT22;31439;53.512;10.206;2023-09-19T03:27:13;17.10;99.90
45729;DHT22;31439;53.512;10.206;2023-09-19T03:29:42;17.10;99.90
45729;DHT22;31439;53.512;10.206;2023-09-19T03:32:08;17.10;99.90
45729;DHT22;31439;53.512;10.206;2023-09-19T03:34:36;17.00;99.90
45729;DHT22;31439;53.512;10.206;2023-09-19T03:37:05;16.90;99.90
45729;DHT22;31439;53.512;10.206;2023-09-19T03:39:32;17.00;99.90
45729;DHT22;31439;53.512;10.206;2023-09-19T03:41:58;17.00;99.90
45729;DHT22;31439;53.512;10.206;2023-09-19T03:44:23;17.00;99.90
45729;DHT22;31439;53.512;10.206;2023-09-19T03:46:49;16.90;99.90
45729;DHT22;31439;53.512;10.206;2023-09-19T03:49:14;16.90;99.90
45729;DHT22;31439;53.512;10.206;2023-09-19T03:51:40;16.90;99.90
45729;DHT22;31439;53.512;10.206;2023-09-19T03:54:07;16.90;99.90
45729;DHT22;31439;53.512;10.206;2023-09-19T03:56:33;16.90;99.90
45729;DHT22;31439;53.512;10.206;2023-09-19T03:58:58;16.90;99.90
45729;DHT22;31439;53.512;10.206;2023-09-19T04:01:24;16.90;99.90
45729;DHT22;31439;53.512;10.206;2023-09-19T04:03:50;16.80;99.90
45729;DHT22;31439;53.512;10.206;2023-09-19T04:06:17;16.80;99.90
45729;DHT22;31439;53.512;10.206;2023-09-19T04:08:43;16.80;99.90
45729;DHT22;31439;53.512;10.206;2023-09-19T04:11:10;16.70;99.90
45729;DHT22;31439;53.512;10.206;2023-09-19T04:13:36;16.70;99.90
45729;DHT22;31439;53.512;10.206;2023-09-19T04:16:02;16.70;99.90
45729;DHT22;31439;53.512;10.206;2023-09-19T04:18:29;16.60;99.90
45729;DHT22;31439;53.512;10.206;2023-09-19T04:20:58;16.60;99.90
45729;DHT22;31439;53.512;10.206;2023-09-19T04:23:23;16.60;99.90
45729;DHT22;31439;53.512;10.206;2023-09-19T04:25:49;16.50;99.90
45729;DHT22;31439;53.512;10.206;2023-09-19T04:28:15;16.50;99.90
45729;DHT22;31439;53.512;10.206;2023-09-19T04:30:41;16.50;99.90
45729;DHT22;31439;53.512;10.206;2023-09-19T04:33:07;16.40;99.90
45729;DHT22;31439;53.512;10.206;2023-09-19T04:35:33;16.50;99.90
45729;DHT22;31439;53.512;10.206;2023-09-19T04:37:59;16.50;99.90
45729;DHT22;31439;53.512;10.206;2023-09-19T04:40:25;16.40;99.90
45729;DHT22;31439;53.512;10.206;2023-09-19T04:42:58;16.40;99.90
45729;DHT22;31439;53.512;10.206;2023-09-19T04:45:24;16.30;99.90
45729;DHT22;31439;53.512;10.206;2023-09-19T04:47:50;16.30;99.90
45729;DHT22;31439;53.512;10.206;2023-09-19T04:50:16;16.30;99.90
45729;DHT22;31439;53.512;10.206;2023-09-19T04:52:43;16.20;99.90
45729;DHT22;31439;53.512;10.206;2023-09-19T04:55:15;16.20;99.90
45729;DHT22;31439;53.512;10.206;2023-09-19T04:57:48;16.20;99.90
45729;DHT22;31439;53.512;10.206;2023-09-19T05:00:15;16.20;99.90
45729;DHT22;31439;53.512;10.206;2023-09-19T05:02:42;16.10;99.90
45729;DHT22;31439;53.512;10.206;2023-09-19T05:05:09;16.10;99.90
45729;DHT22;31439;53.512;10.206;2023-09-19T05:07:42;16.10;99.90
45729;DHT22;31439;53.512;10.206;2023-09-19T05:10:08;16.10;99.90
45729;DHT22;31439;53.512;10.206;2023-09-19T05:12:34;16.00;99.90
45729;DHT22;31439;53.512;10.206;2023-09-19T05:15:04;16.00;99.90
45729;DHT22;31439;53.512;10.206;2023-09-19T05:17:30;15.90;99.90
45729;DHT22;31439;53.512;10.206;2023-09-19T05:19:57;16.00;99.90
45729;DHT22;31439;53.512;10.206;2023-09-19T05:22:25;15.90;99.90
45729;DHT22;31439;53.512;10.206;2023-09-19T05:24:51;16.00;99.90
45729;DHT22;31439;53.512;10.206;2023-09-19T05:27:18;16.00;99.90
45729;DHT22;31439;53.512;10.206;2023-09-19T05:29:46;16.10;99.90
45729;DHT22;31439;53.512;10.206;2023-09-19T05:32:12;15.90;99.90
45729;DHT22;31439;53.512;10.206;2023-09-19T05:34:38;16.00;99.90
45729;DHT22;31439;53.512;10.206;2023-09-19T05:37:04;16.00;99.90
45729;DHT22;31439;53.512;10.206;2023-09-19T05:39:32;15.90;99.90
45729;DHT22;31439;53.512;10.206;2023-09-19T05:41:58;15.90;99.90
45729;DHT22;31439;53.512;10.206;2023-09-19T05:44:25;15.80;99.90
45729;DHT22;31439;53.512;10.206;2023-09-19T05:46:51;15.90;99.90
45729;DHT22;31439;53.512;10.206;2023-09-19T05:49:17;15.80;99.90
45729;DHT22;31439;53.512;10.206;2023-09-19T05:51:43;16.00;99.90
45729;DHT22;31439;53.512;10.206;2023-09-19T05:54:09;16.00;99.90
45729;DHT22;31439;53.512;10.206;2023-09-19T05:56:36;16.00;99.90
45729;DHT22;31439;53.512;10.206;2023-09-19T05:59:02;16.20;99.90
45729;DHT22;31439;53.512;10.206;2023-09-19T06:01:29;16.10;99.90
45729;DHT22;31439;53.512;10.206;2023-09-19T06:03:57;16.10;99.90
45729;DHT22;31439;53.512;10.206;2023-09-19T06:06:25;16.00;99.90
45729;DHT22;31439;53.512;10.206;2023-09-19T06:08:51;16.00;99.90
45729;DHT22;31439;53.512;10.206;2023-09-19T06:11:17;16.00;99.90
45729;DHT22;31439;53.512;10.206;2023-09-19T06:13:45;16.00;99.90
45729;DHT22;31439;53.512;10.206;2023-09-19T06:16:12;16.00;99.90
45729;DHT22;31439;53.512;10.206;2023-09-19T06:18:38;16.00;99.90
45729;DHT22;31439;53.512;10.206;2023-09-19T06:21:04;16.00;99.90
45729;DHT22;31439;53.512;10.206;2023-09-19T06:23:34;15.90;99.90
45729;DHT22;31439;53.512;10.206;2023-09-19T06:26:00;16.00;99.90
45729;DHT22;31439;53.512;10.206;2023-09-19T06:28:26;16.00;99.90
45729;DHT22;31439;53.512;10.206;2023-09-19T06:30:54;16.10;99.90
45729;DHT22;31439;53.512;10.206;2023-09-19T06:33:20;16.10;99.90
45729;DHT22;31439;53.512;10.206;2023-09-19T06:35:47;16.20;99.90
45729;DHT22;31439;53.512;10.206;2023-09-19T06:38:13;16.30;99.90
45729;DHT22;31439;53.512;10.206;2023-09-19T06:40:41;16.30;99.90
45729;DHT22;31439;53.512;10.206;2023-09-19T06:43:09;16.30;99.90
45729;DHT22;31439;53.512;10.206;2023-09-19T06:45:35;16.30;99.90
45729;DHT22;31439;53.512;10.206;2023-09-19T06:48:01;16.30;99.90
45729;DHT22;31439;53.512;10.206;2023-09-19T06:50:28;16.30;99.90
45729;DHT22;31439;53.512;10.206;2023-09-19T06:52:58;16.40;99.90
45729;DHT22;31439;53.512;10.206;2023-09-19T06:55:25;16.40;99.90
45729;DHT22;31439;53.512;10.206;2023-09-19T06:57:53;16.30;99.90
45729;DHT22;31439;53.512;10.206;2023-09-19T07:00:20;16.30;99.90
45729;DHT22;31439;53.512;10.206;2023-09-19T07:03:01;16.30;99.90
45729;DHT22;31439;53.512;10.206;2023-09-19T07:05:30;16.40;99.90
45729;DHT22;31439;53.512;10.206;2023-09-19T07:07:56;16.40;99.90
45729;DHT22;31439;53.512;10.206;2023-09-19T07:10:25;16.50;99.90
45729;DHT22;31439;53.512;10.206;2023-09-19T07:12:59;16.50;99.90
45729;DHT22;31439;53.512;10.206;2023-09-19T07:15:29;16.50;99.90
45729;DHT22;31439;53.512;10.206;2023-09-19T07:17:56;16.50;99.90
45729;DHT22;31439;53.512;10.206;2023-09-19T07:20:23;16.50;99.90
45729;DHT22;31439;53.512;10.206;2023-09-19T07:22:51;16.50;99.90
45729;DHT22;31439;53.512;10.206;2023-09-19T07:25:17;16.40;99.90
45729;DHT22;31439;53.512;10.206;2023-09-19T07:27:43;16.50;99.90
45729;DHT22;31439;53.512;10.206;2023-09-19T07:30:09;16.60;99.90
45729;DHT22;31439;53.512;10.206;2023-09-19T07:32:37;16.60;99.90
45729;DHT22;31439;53.512;10.206;2023-09-19T07:35:04;16.70;99.90
45729;DHT22;31439;53.512;10.206;2023-09-19T07:37:31;16.60;99.90
45729;DHT22;31439;53.512;10.206;2023-09-19T07:39:59;16.70;99.90
45729;DHT22;31439;53.512;10.206;2023-09-19T07:42:25;16.70;99.90
45729;DHT22;31439;53.512;10.206;2023-09-19T07:44:51;16.70;99.90
45729;DHT22;31439;53.512;10.206;2023-09-19T07:47:19;16.80;99.90
45729;DHT22;31439;53.512;10.206;2023-09-19T07:49:47;16.60;99.90
45729;DHT22;31439;53.512;10.206;2023-09-19T07:52:13;16.70;99.90
45729;DHT22;31439;53.512;10.206;2023-09-19T07:54:39;16.70;99.90
45729;DHT22;31439;53.512;10.206;2023-09-19T07:57:06;16.70;99.90
45729;DHT22;31439;53.512;10.206;2023-09-19T07:59:32;15.70;99.90
45729;DHT22;31439;53.512;10.206;2023-09-19T08:01:58;16.70;99.90
45729;DHT22;31439;53.512;10.206;2023-09-19T08:04:23;16.70;99.90
45729;DHT22;31439;53.512;10.206;2023-09-19T08:06:51;16.70;99.90
45729;DHT22;31439;53.512;10.206;2023-09-19T08:09:20;16.60;99.90
45729;DHT22;31439;53.512;10.206;2023-09-19T08:11:47;16.60;99.90
45729;DHT22;31439;53.512;10.206;2023-09-19T08:14:13;16.50;99.90
45729;DHT22;31439;53.512;10.206;2023-09-19T08:16:40;16.60;99.90
45729;DHT22;31439;53.512;10.206;2023-09-19T08:19:05;16.60;99.90
45729;DHT22;31439;53.512;10.206;2023-09-19T08:21:31;16.60;99.90
45729;DHT22;31439;53.512;10.206;2023-09-19T08:23:57;16.60;99.90
45729;DHT22;31439;53.512;10.206;2023-09-19T08:26:23;16.60;99.90
45729;DHT22;31439;53.512;10.206;2023-09-19T08:28:49;16.70;99.90
45729;DHT22;31439;53.512;10.206;2023-09-19T08:31:16;16.70;99.90
45729;DHT22;31439;53.512;10.206;2023-09-19T08:33:42;16.70;99.90
45729;DHT22;31439;53.512;10.206;2023-09-19T08:36:10;16.80;99.90
45729;DHT22;31439;53.512;10.206;2023-09-19T08:38:36;16.60;99.90
45729;DHT22;31439;53.512;10.206;2023-09-19T08:41:07;16.60;99.90
45729;DHT22;31439;53.512;10.206;2023-09-19T08:43:34;16.60;99.90
45729;DHT22;31439;53.512;10.206;2023-09-19T08:46:11;16.70;99.90
45729;DHT22;31439;53.512;10.206;2023-09-19T08:48:46;16.80;99.90
45729;DHT22;31439;53.512;10.206;2023-09-19T08:51:26;17.00;99.90
45729;DHT22;31439;53.512;10.206;2023-09-19T08:54:03;17.10;99.90
45729;DHT22;31439;53.512;10.206;2023-09-19T08:56:30;17.10;99.90
45729;DHT22;31439;53.512;10.206;2023-09-19T08:59:01;17.00;99.90
45729;DHT22;31439;53.512;10.206;2023-09-19T09:01:28;17.00;99.90
45729;DHT22;31439;53.512;10.206;2023-09-19T09:03:55;17.00;99.90
45729;DHT22;31439;53.512;10.206;2023-09-19T09:06:22;17.00;99.90
45729;DHT22;31439;53.512;10.206;2023-09-19T09:08:50;17.00;99.90
45729;DHT22;31439;53.512;10.206;2023-09-19T09:11:16;17.00;99.90
45729;DHT22;31439;53.512;10.206;2023-09-19T09:13:44;17.00;99.90
45729;DHT22;31439;53.512;10.206;2023-09-19T09:16:10;17.00;99.90
45729;DHT22;31439;53.512;10.206;2023-09-19T09:18:36;17.10;99.90
45729;DHT22;31439;53.512;10.206;2023-09-19T09:21:02;17.10;99.90
45729;DHT22;31439;53.512;10.206;2023-09-19T09:23:30;17.10;99.90
45729;DHT22;31439;53.512;10.206;2023-09-19T09:25:58;17.20;99.90
45729;DHT22;31439;53.512;10.206;2023-09-19T09:28:29;17.30;99.90
45729;DHT22;31439;53.512;10.206;2023-09-19T09:30:59;17.30;99.90
45729;DHT22;31439;53.512;10.206;2023-09-19T09:33:26;17.30;99.90
45729;DHT22;31439;53.512;10.206;2023-09-19T09:35:58;17.20;99.90
45729;DHT22;31439;53.512;10.206;2023-09-19T09:38:48;17.30;99.90
45729;DHT22;31439;53.512;10.206;2023-09-19T09:41:16;17.40;99.90
45729;DHT22;31439;53.512;10.206;2023-09-19T09:43:53;17.50;99.90
45729;DHT22;31439;53.512;10.206;2023-09-19T09:46:20;17.70;99.90
45729;DHT22;31439;53.512;10.206;2023-09-19T09:48:57;17.70;99.90
45729;DHT22;31439;53.512;10.206;2023-09-19T09:52:24;17.70;99.90
45729;DHT22;31439;53.512;10.206;2023-09-19T09:55:01;17.70;99.90
45729;DHT22;31439;53.512;10.206;2023-09-19T09:57:30;17.80;99.90
45729;DHT22;31439;53.512;10.206;2023-09-19T09:59:58;17.90;99.90
45729;DHT22;31439;53.512;10.206;2023-09-19T10:02:34;18.00;99.90
45729;DHT22;31439;53.512;10.206;2023-09-19T10:05:19;18.10;99.90
45729;DHT22;31439;53.512;10.206;2023-09-19T10:07:54;18.10;99.90
45729;DHT22;31439;53.512;10.206;2023-09-19T10:10:43;18.10;99.90
45729;DHT22;31439;53.512;10.206;2023-09-19T10:13:19;18.20;99.90
45729;DHT22;31439;53.512;10.206;2023-09-19T10:15:51;18.10;99.90
45729;DHT22;31439;53.512;10.206;2023-09-19T10:18:23;18.10;99.90
45729;DHT22;31439;53.512;10.206;2023-09-19T10:20:49;18.10;99.90
45729;DHT22;31439;53.512;10.206;2023-09-19T10:23:18;18.30;99.90
45729;DHT22;31439;53.512;10.206;2023-09-19T10:25:56;18.40;99.90
45729;DHT22;31439;53.512;10.206;2023-09-19T10:28:23;18.50;99.90
45729;DHT22;31439;53.512;10.206;2023-09-19T10:30:53;18.50;99.90
45729;DHT22;31439;53.512;10.206;2023-09-19T10:33:20;18.30;99.90
45729;DHT22;31439;53.512;10.206;2023-09-19T10:35:49;18.30;99.90
45729;DHT22;31439;53.512;10.206;2023-09-19T10:38:23;18.20;99.90
45729;DHT22;31439;53.512;10.206;2023-09-19T10:40:50;18.20;99.90
45729;DHT22;31439;53.512;10.206;2023-09-19T10:43:17;18.30;99.90
45729;DHT22;31439;53.512;10.206;2023-09-19T10:45:45;18.40;99.90
45729;DHT22;31439;53.512;10.206;2023-09-19T10:48:12;18.30;99.90
45729;DHT22;31439;53.512;10.206;2023-09-19T10:56:09;18.30;99.90
45729;DHT22;31439;53.512;10.206;2023-09-19T10:58:43;18.20;99.90
45729;DHT22;31439;53.512;10.206;2023-09-19T11:01:10;18.20;99.90
45729;DHT22;31439;53.512;10.206;2023-09-19T11:03:41;18.20;99.90
45729;DHT22;31439;53.512;10.206;2023-09-19T11:06:18;18.20;99.90
45729;DHT22;31439;53.512;10.206;2023-09-19T11:09:01;18.20;99.90
45729;DHT22;31439;53.512;10.206;2023-09-19T11:11:50;18.20;99.90
45729;DHT22;31439;53.512;10.206;2023-09-19T11:30:51;18.40;99.90
45729;DHT22;31439;53.512;10.206;2023-09-19T11:33:28;18.40;99.90
45729;DHT22;31439;53.512;10.206;2023-09-19T11:36:14;18.30;99.90
45729;DHT22;31439;53.512;10.206;2023-09-19T11:43:54;18.60;99.90
45729;DHT22;31439;53.512;10.206;2023-09-19T11:46:53;18.60;99.90
45729;DHT22;31439;53.512;10.206;2023-09-19T11:49:26;18.50;99.90
45729;DHT22;31439;53.512;10.206;2023-09-19T11:52:01;18.60;99.90
45729;DHT22;31439;53.512;10.206;2023-09-19T11:54:31;18.50;99.90
45729;DHT22;31439;53.512;10.206;2023-09-19T11:56:58;18.50;99.90
45729;DHT22;31439;53.512;10.206;2023-09-19T11:59:28;18.40;99.90
45729;DHT22;31439;53.512;10.206;2023-09-19T12:02:06;18.50;99.90
45729;DHT22;31439;53.512;10.206;2023-09-19T12:04:40;18.40;99.90
45729;DHT22;31439;53.512;10.206;2023-09-19T12:07:08;18.50;99.90
45729;DHT22;31439;53.512;10.206;2023-09-19T12:09:45;18.60;99.90
45729;DHT22;31439;53.512;10.206;2023-09-19T12:12:24;18.70;99.90
45729;DHT22;31439;53.512;10.206;2023-09-19T12:14:54;18.80;99.90
45729;DHT22;31439;53.512;10.206;2023-09-19T12:17:20;18.80;99.90
45729;DHT22;31439;53.512;10.206;2023-09-19T12:19:53;18.70;99.90
45729;DHT22;31439;53.512;10.206;2023-09-19T12:22:19;18.60;99.90
45729;DHT22;31439;53.512;10.206;2023-09-19T12:24:46;18.60;99.90
45729;DHT22;31439;53.512;10.206;2023-09-19T12:27:12;18.60;99.90
45729;DHT22;31439;53.512;10.206;2023-09-19T12:29:48;18.60;99.90
45729;DHT22;31439;53.512;10.206;2023-09-19T12:32:14;18.70;99.90
45729;DHT22;31439;53.512;10.206;2023-09-19T12:34:44;18.60;99.90
45729;DHT22;31439;53.512;10.206;2023-09-19T12:37:15;18.90;99.90
45729;DHT22;31439;53.512;10.206;2023-09-19T12:39:46;19.00;99.90
45729;DHT22;31439;53.512;10.206;2023-09-19T12:42:17;19.10;99.90
45729;DHT22;31439;53.512;10.206;2023-09-19T12:44:46;19.10;99.90
45729;DHT22;31439;53.512;10.206;2023-09-19T12:47:18;19.10;99.90
45729;DHT22;31439;53.512;10.206;2023-09-19T12:55:31;19.10;99.90
45729;DHT22;31439;53.512;10.206;2023-09-19T12:58:14;19.00;99.90
45729;DHT22;31439;53.512;10.206;2023-09-19T13:00:45;18.90;99.90
45729;DHT22;31439;53.512;10.206;2023-09-19T13:03:13;19.00;99.90
45729;DHT22;31439;53.512;10.206;2023-09-19T13:05:54;19.10;99.90
45729;DHT22;31439;53.512;10.206;2023-09-19T13:08:28;19.10;99.90
45729;DHT22;31439;53.512;10.206;2023-09-19T13:11:15;19.20;99.90
45729;DHT22;31439;53.512;10.206;2023-09-19T13:16:19;19.20;99.90
45729;DHT22;31439;53.512;10.206;2023-09-19T13:18:54;19.20;99.90
45729;DHT22;31439;53.512;10.206;2023-09-19T13:21:31;19.20;99.90
45729;DHT22;31439;53.512;10.206;2023-09-19T13:24:21;19.20;99.90
45729;DHT22;31439;53.512;10.206;2023-09-19T13:26:49;19.20;99.90
45729;DHT22;31439;53.512;10.206;2023-09-19T13:29:15;19.20;99.90
45729;DHT22;31439;53.512;10.206;2023-09-19T13:31:49;19.20;99.90
45729;DHT22;31439;53.512;10.206;2023-09-19T13:34:15;19.30;99.90
45729;DHT22;31439;53.512;10.206;2023-09-19T13:36:44;19.30;99.90
45729;DHT22;31439;53.512;10.206;2023-09-19T13:39:10;19.40;99.90
45729;DHT22;31439;53.512;10.206;2023-09-19T13:41:38;19.40;99.90
45729;DHT22;31439;53.512;10.206;2023-09-19T13:44:04;19.50;99.90
45729;DHT22;31439;53.512;10.206;2023-09-19T13:46:30;19.50;99.90
45729;DHT22;31439;53.512;10.206;2023-09-19T13:48:59;19.50;99.90
45729;DHT22;31439;53.512;10.206;2023-09-19T13:51:26;19.40;99.90
45729;DHT22;31439;53.512;10.206;2023-09-19T13:53:51;19.50;99.90
45729;DHT22;31439;53.512;10.206;2023-09-19T13:56:17;19.50;99.90
45729;DHT22;31439;53.512;10.206;2023-09-19T13:58:43;19.40;99.90
45729;DHT22;31439;53.512;10.206;2023-09-19T14:01:09;19.40;99.90
45729;DHT22;31439;53.512;10.206;2023-09-19T14:03:38;19.40;99.90
45729;DHT22;31439;53.512;10.206;2023-09-19T14:06:04;19.50;99.90
45729;DHT22;31439;53.512;10.206;2023-09-19T14:08:30;19.60;99.90
45729;DHT22;31439;53.512;10.206;2023-09-19T14:10:56;19.60;99.90
45729;DHT22;31439;53.512;10.206;2023-09-19T14:13:21;19.70;99.90
45729;DHT22;31439;53.512;10.206;2023-09-19T14:15:48;19.70;99.90
45729;DHT22;31439;53.512;10.206;2023-09-19T14:18:14;19.80;99.90
45729;DHT22;31439;53.512;10.206;2023-09-19T14:20:40;19.70;99.90
45729;DHT22;31439;53.512;10.206;2023-09-19T14:23:06;19.60;99.90
45729;DHT22;31439;53.512;10.206;2023-09-19T14:25:34;19.50;99.90
45729;DHT22;31439;53.512;10.206;2023-09-19T14:28:00;19.60;99.90
45729;DHT22;31439;53.512;10.206;2023-09-19T14:30:26;19.70;99.90
45729;DHT22;31439;53.512;10.206;2023-09-19T14:32:52;19.70;99.90
45729;DHT22;31439;53.512;10.206;2023-09-19T14:35:19;19.70;99.90
45729;DHT22;31439;53.512;10.206;2023-09-19T14:37:44;19.60;99.90
45729;DHT22;31439;53.512;10.206;2023-09-19T14:40:11;19.70;99.90
45729;DHT22;31439;53.512;10.206;2023-09-19T14:42:39;19.60;99.90
45729;DHT22;31439;53.512;10.206;2023-09-19T14:45:05;19.60;99.90
45729;DHT22;31439;53.512;10.206;2023-09-19T14:47:32;19.60;99.90
45729;DHT22;31439;53.512;10.206;2023-09-19T14:50:00;19.70;99.90
45729;DHT22;31439;53.512;10.206;2023-09-19T14:52:26;19.60;99.90
45729;DHT22;31439;53.512;10.206;2023-09-19T14:54:53;19.60;99.90
45729;DHT22;31439;53.512;10.206;2023-09-19T14:57:19;19.60;99.90
45729;DHT22;31439;53.512;10.206;2023-09-19T14:59:45;19.60;99.90
45729;DHT22;31439;53.512;10.206;2023-09-19T15:02:10;19.70;99.90
45729;DHT22;31439;53.512;10.206;2023-09-19T15:04:36;19.70;99.90
45729;DHT22;31439;53.512;10.206;2023-09-19T15:07:02;19.70;99.90
45729;DHT22;31439;53.512;10.206;2023-09-19T15:09:28;19.80;99.90
45729;DHT22;31439;53.512;10.206;2023-09-19T15:11:54;19.60;99.90
45729;DHT22;31439;53.512;10.206;2023-09-19T15:14:20;19.60;99.90
45729;DHT22;31439;53.512;10.206;2023-09-19T15:16:46;19.50;99.90
45729;DHT22;31439;53.512;10.206;2023-09-19T15:19:13;19.50;99.90
45729;DHT22;31439;53.512;10.206;2023-09-19T15:21:39;19.30;99.90
45729;DHT22;31439;53.512;10.206;2023-09-19T15:24:06;19.30;99.90
45729;DHT22;31439;53.512;10.206;2023-09-19T15:26:35;19.20;99.90
45729;DHT22;31439;53.512;10.206;2023-09-19T15:29:07;19.10;99.90
45729;DHT22;31439;53.512;10.206;2023-09-19T15:31:33;19.10;99.90
45729;DHT22;31439;53.512;10.206;2023-09-19T15:33:58;19.10;99.90
45729;DHT22;31439;53.512;10.206;2023-09-19T15:36:24;19.10;99.90
45729;DHT22;31439;53.512;10.206;2023-09-19T15:41:34;19.10;99.90
45729;DHT22;31439;53.512;10.206;2023-09-19T15:44:01;19.10;99.90
45729;DHT22;31439;53.512;10.206;2023-09-19T15:46:28;19.10;99.90
45729;DHT22;31439;53.512;10.206;2023-09-19T15:48:55;19.10;99.90
45729;DHT22;31439;53.512;10.206;2023-09-19T15:51:21;19.10;99.90
45729;DHT22;31439;53.512;10.206;2023-09-19T15:53:48;19.10;99.90
45729;DHT22;31439;53.512;10.206;2023-09-19T15:56:15;19.10;99.90
45729;DHT22;31439;53.512;10.206;2023-09-19T15:58:44;19.10;99.90
45729;DHT22;31439;53.512;10.206;2023-09-19T16:01:10;19.00;99.90
45729;DHT22;31439;53.512;10.206;2023-09-19T16:03:37;19.00;99.90
45729;DHT22;31439;53.512;10.206;2023-09-19T16:06:11;19.00;99.90
45729;DHT22;31439;53.512;10.206;2023-09-19T16:08:41;19.00;99.90
45729;DHT22;31439;53.512;10.206;2023-09-19T16:11:07;19.00;99.90
45729;DHT22;31439;53.512;10.206;2023-09-19T16:13:34;19.00;99.90
45729;DHT22;31439;53.512;10.206;2023-09-19T16:16:00;19.00;99.90
45729;DHT22;31439;53.512;10.206;2023-09-19T16:18:25;19.00;99.90